Cleveland, Virginia
Current Conditions -  °F | °C
As of 1:15 PM on Friday 31 Oct 2014 (Local Time) from KVJI Reporting Station
Drizzle Drizzle  
Wind Chill: 46°   Ceiling: 4600
Heat Index: 49°   Visibility: 10mi
Dew Point: 42°   Wind: 7mph
Humidity: 75%   Direction: 310°NW
Pressure: 29.89"   Gusts: NA
Location:  36.94°N, 82.15°W
Report Text: KVJI 311715Z AUTO 31006KT 10SM -DZ SCT025 OVC046 10/05 A2989 RMK AO2 T00950053
Loading
Personal Weather Stations






























Interactive Weather Map
Tropical Storm Tracking
New forecast layout! Learn more

10-Day Weather Forecast

Advertisements
Track Severe Weather on mobile